Time;durP1;ratioP1;P1;durP2;ratioP2;P2;SDS_P1;SDS_P2;PMS_P1;PMS_P2;Temp;Humidity;BMP_temperature;BMP_pressure;BME280_temperature;BME280_humidity;BME280_pressure;Samples;Min_cycle;Max_cycle;Signal;HPM_P1;HPM_P2
2024/02/14 00:02:09;;;;;;;8.00;6.17;;;2.00;18.90;;;;;;5011987;28;20208;-68
2024/02/14 00:04:35;;;;;;;13.63;5.50;;;2.00;18.20;;;;;;5012101;28;20268;-69
2024/02/14 00:07:00;;;;;;;10.53;5.70;;;2.10;18.30;;;;;;5012148;28;20185;-67
2024/02/14 00:09:26;;;;;;;6.70;4.50;;;2.10;18.30;;;;;;5011641;28;20579;-68
2024/02/14 00:11:51;;;;;;;6.63;4.57;;;2.10;18.30;;;;;;5011892;28;20192;-67
2024/02/14 00:14:20;;;;;;;6.17;4.50;;;2.10;18.50;;;;;;5012206;28;20181;-68
2024/02/14 00:16:45;;;;;;;9.35;4.65;;;2.10;18.30;;;;;;5011756;28;20177;-67
2024/02/14 00:19:11;;;;;;;6.80;4.80;;;2.20;18.30;;;;;;5011526;28;20282;-68
2024/02/14 00:21:38;;;;;;;7.10;4.27;;;2.20;18.30;;;;;;5011940;28;20207;-69
2024/02/14 00:24:04;;;;;;;6.88;3.55;;;2.30;17.70;;;;;;5011552;28;20413;-69
2024/02/14 00:26:30;;;;;;;6.85;4.10;;;2.30;18.10;;;;;;5012106;28;20214;-72
2024/02/14 00:28:55;;;;;;;9.97;4.57;;;2.40;18.00;;;;;;5012281;28;20222;-69
2024/02/14 00:31:21;;;;;;;5.40;3.30;;;2.40;16.80;;;;;;5011891;28;20529;-67
2024/02/14 00:33:46;;;;;;;7.37;4.63;;;2.50;16.50;;;;;;5011659;28;20178;-68
2024/02/14 00:36:12;;;;;;;7.67;4.00;;;2.60;16.50;;;;;;5011700;28;20197;-68
2024/02/14 00:38:38;;;;;;;8.23;4.83;;;2.70;15.90;;;;;;5011313;28;20202;-68
2024/02/14 00:41:03;;;;;;;7.27;4.60;;;2.80;15.80;;;;;;5011576;28;20214;-69
2024/02/14 00:43:29;;;;;;;6.83;4.20;;;2.80;16.20;;;;;;5011367;28;20179;-69
2024/02/14 00:45:56;;;;;;;6.90;4.60;;;2.90;15.20;;;;;;5011094;28;20274;-69
2024/02/14 00:48:22;;;;;;;8.18;4.80;;;2.90;14.80;;;;;;5010901;28;20264;-68
2024/02/14 00:50:48;;;;;;;9.43;5.47;;;2.90;14.60;;;;;;5011459;28;20182;-68
2024/02/14 00:53:14;;;;;;;9.40;4.55;;;3.00;14.00;;;;;;5011205;28;20178;-67
2024/02/14 00:55:39;;;;;;;9.47;4.90;;;2.90;13.90;;;;;;5011311;28;20245;-69
2024/02/14 00:58:05;;;;;;;12.57;5.73;;;2.90;14.20;;;;;;5011085;28;20199;-68
2024/02/14 01:00:31;;;;;;;8.33;4.77;;;2.80;15.20;;;;;;5011236;28;20534;-68
2024/02/14 01:02:58;;;;;;;5.78;4.55;;;2.90;15.40;;;;;;5011341;28;20565;-69
2024/02/14 01:05:24;;;;;;;7.18;4.97;;;3.00;15.60;;;;;;5011296;28;20587;-69
2024/02/14 01:07:49;;;;;;;6.75;4.32;;;3.10;15.30;;;;;;5011247;28;20188;-69
2024/02/14 01:10:15;;;;;;;7.60;4.37;;;3.20;14.70;;;;;;5011205;28;20554;-68
2024/02/14 01:12:41;;;;;;;4.53;4.13;;;3.30;14.80;;;;;;5013976;28;20186;-69
2024/02/14 01:15:06;;;;;;;6.50;4.00;;;3.30;14.50;;;;;;5015190;28;20266;-68
2024/02/14 01:17:33;;;;;;;6.20;4.00;;;3.40;15.60;;;;;;5014882;28;20186;-69
2024/02/14 01:19:58;;;;;;;7.17;4.50;;;3.50;14.90;;;;;;5015022;28;20444;-68
2024/02/14 01:22:24;;;;;;;7.50;4.10;;;3.60;14.20;;;;;;4997104;28;20462;-69
2024/02/14 01:24:50;;;;;;;5.90;4.17;;;3.70;13.90;;;;;;5014886;28;20190;-69
2024/02/14 01:27:16;;;;;;;6.10;3.23;;;3.80;13.70;;;;;;5014861;28;20179;-69
2024/02/14 01:29:42;;;;;;;7.32;2.90;;;3.80;14.40;;;;;;5014686;28;20603;-69
2024/02/14 01:32:09;;;;;;;8.63;3.70;;;3.90;14.60;;;;;;5014777;28;20258;-69
2024/02/14 01:34:35;;;;;;;6.30;3.23;;;4.00;14.80;;;;;;5014961;28;20179;-69
2024/02/14 01:37:00;;;;;;;5.13;3.37;;;4.10;15.30;;;;;;5019025;28;20417;-68
2024/02/14 01:39:26;;;;;;;6.50;3.97;;;4.10;14.60;;;;;;5029787;28;20214;-67
2024/02/14 01:41:52;;;;;;;8.20;4.47;;;4.10;15.30;;;;;;5026406;28;20699;-68
2024/02/14 01:44:18;;;;;;;6.37;3.10;;;4.10;15.40;;;;;;4997102;28;20647;-69
2024/02/14 01:46:44;;;;;;;6.17;3.50;;;4.20;16.70;;;;;;5014734;28;20635;-68
2024/02/14 01:49:14;;;;;;;6.93;2.80;;;4.20;16.40;;;;;;5014853;28;20457;-68
2024/02/14 01:51:42;;;;;;;6.77;3.40;;;4.20;17.00;;;;;;5014432;28;20878;-69
2024/02/14 01:54:09;;;;;;;5.67;4.13;;;4.30;15.40;;;;;;5014397;28;20950;-69
2024/02/14 01:56:35;;;;;;;6.00;3.97;;;4.30;17.20;;;;;;5014403;28;20423;-69
2024/02/14 01:59:01;;;;;;;6.63;4.97;;;4.30;16.80;;;;;;5014271;28;20441;-70
2024/02/14 02:01:27;;;;;;;7.13;5.20;;;4.30;18.80;;;;;;5014395;28;20462;-70
2024/02/14 02:03:54;;;;;;;7.87;5.20;;;4.20;19.20;;;;;;5013974;28;20476;-70
2024/02/14 02:06:20;;;;;;;11.80;6.87;;;4.10;19.20;;;;;;5014356;28;20182;-69
2024/02/14 02:08:46;;;;;;;8.20;5.77;;;4.10;19.60;;;;;;5013845;28;20852;-70
2024/02/14 02:11:12;;;;;;;7.60;5.93;;;4.20;19.00;;;;;;5014038;28;20277;-68
2024/02/14 02:13:38;;;;;;;6.70;5.40;;;4.20;18.60;;;;;;5014168;28;20505;-68
2024/02/14 02:16:05;;;;;;;8.37;5.73;;;4.20;19.40;;;;;;5014310;28;20176;-69
2024/02/14 02:18:31;;;;;;;8.47;6.00;;;4.20;19.10;;;;;;5013520;28;20431;-69
2024/02/14 02:20:57;;;;;;;8.57;6.63;;;4.20;19.30;;;;;;5013833;28;20433;-70
2024/02/14 02:23:23;;;;;;;10.07;6.27;;;4.10;18.00;;;;;;5012754;28;20414;-70
2024/02/14 02:25:49;;;;;;;12.33;6.80;;;4.10;18.00;;;;;;5013853;28;20182;-70
2024/02/14 02:28:14;;;;;;;9.57;6.40;;;4.20;17.90;;;;;;5013498;28;20172;-69
2024/02/14 02:30:40;;;;;;;11.30;6.60;;;4.10;17.40;;;;;;5013522;28;20426;-69
2024/02/14 02:33:07;;;;;;;8.83;6.90;;;4.10;18.50;;;;;;5013262;28;20180;-68
2024/02/14 02:35:33;;;;;;;6.07;4.70;;;4.00;19.50;;;;;;5013975;28;20674;-69
2024/02/14 02:37:59;;;;;;;7.40;4.87;;;4.00;19.90;;;;;;5013371;28;20423;-69
2024/02/14 02:40:25;;;;;;;6.10;4.47;;;4.10;20.60;;;;;;5013132;28;20438;-69
2024/02/14 02:42:51;;;;;;;7.03;5.37;;;4.20;20.80;;;;;;5013499;28;20218;-69
2024/02/14 02:45:17;;;;;;;7.27;4.73;;;4.20;21.30;;;;;;5013565;28;20757;-70
2024/02/14 02:47:43;;;;;;;8.40;5.20;;;4.20;21.70;;;;;;5012925;28;20228;-69
2024/02/14 02:50:08;;;;;;;9.27;5.40;;;4.20;21.70;;;;;;5012647;28;20453;-68
2024/02/14 02:52:34;;;;;;;7.03;4.47;;;4.30;22.30;;;;;;5013036;28;20598;-68
2024/02/14 02:55:04;;;;;;;7.33;5.47;;;4.30;22.20;;;;;;5012988;28;20183;-68
2024/02/14 02:57:32;;;;;;;6.03;4.27;;;4.30;22.80;;;;;;5013003;28;20505;-68
2024/02/14 02:59:57;;;;;;;9.10;5.40;;;4.30;22.70;;;;;;5012667;28;20439;-70
2024/02/14 03:02:23;;;;;;;7.97;4.33;;;4.30;22.20;;;;;;5012585;28;20513;-68
2024/02/14 03:04:50;;;;;;;7.67;5.53;;;4.30;23.20;;;;;;5012698;28;20176;-68
2024/02/14 03:07:16;;;;;;;10.17;4.90;;;4.40;22.60;;;;;;5012490;28;20267;-69
2024/02/14 03:09:41;;;;;;;6.47;5.43;;;4.40;22.10;;;;;;5012415;28;20853;-68
2024/02/14 03:12:08;;;;;;;4.30;3.37;;;4.50;22.30;;;;;;5012690;28;20172;-68
2024/02/14 03:14:35;;;;;;;7.67;3.93;;;4.50;21.80;;;;;;5012659;28;20255;-68
2024/02/14 03:17:02;;;;;;;5.23;3.50;;;4.50;22.10;;;;;;5012681;28;20422;-68
2024/02/14 03:19:28;;;;;;;4.40;3.13;;;4.50;22.40;;;;;;5012171;28;20435;-69
2024/02/14 03:21:55;;;;;;;6.50;3.57;;;4.50;23.20;;;;;;5012263;28;20457;-70
2024/02/14 03:24:20;;;;;;;4.80;2.97;;;4.50;23.10;;;;;;5012969;28;20644;-69
2024/02/14 03:26:46;;;;;;;4.57;2.70;;;4.50;22.30;;;;;;5012520;28;20425;-69
2024/02/14 03:29:12;;;;;;;3.30;2.20;;;4.50;21.70;;;;;;4994468;28;20291;-69
2024/02/14 03:31:37;;;;;;;3.10;2.17;;;4.60;20.30;;;;;;5012266;28;20498;-68
2024/02/14 03:34:03;;;;;;;4.73;2.20;;;4.60;19.90;;;;;;5012023;28;20415;-68
2024/02/14 03:36:30;;;;;;;4.33;2.30;;;4.70;17.20;;;;;;5012223;28;20180;-68
2024/02/14 03:38:57;;;;;;;3.43;2.00;;;4.80;15.80;;;;;;5011615;28;20495;-68
2024/02/14 03:41:22;;;;;;;3.07;1.60;;;4.90;15.40;;;;;;5012227;28;20470;-68
2024/02/14 03:43:49;;;;;;;6.77;2.53;;;5.00;14.50;;;;;;5012154;28;20485;-69
2024/02/14 03:46:15;;;;;;;3.93;2.80;;;5.00;12.50;;;;;;5012020;28;20168;-69
2024/02/14 03:48:43;;;;;;;3.60;2.20;;;5.10;11.70;;;;;;5011304;28;20814;-67
2024/02/14 03:51:08;;;;;;;3.10;1.87;;;5.20;9.70;;;;;;5011765;28;20171;-71
2024/02/14 03:53:34;;;;;;;3.43;2.27;;;5.30;8.40;;;;;;5012129;28;20767;-70
2024/02/14 03:56:00;;;;;;;4.57;2.60;;;5.40;7.50;;;;;;5012169;28;20188;-70
2024/02/14 03:58:26;;;;;;;7.40;4.30;;;5.40;8.20;;;;;;5011479;28;20245;-69
2024/02/14 04:00:52;;;;;;;6.90;5.00;;;5.30;9.90;;;;;;5011710;28;20414;-69
2024/02/14 04:03:17;;;;;;;6.30;4.50;;;5.30;10.60;;;;;;5011935;28;20181;-69
2024/02/14 04:05:44;;;;;;;4.60;3.77;;;5.10;11.50;;;;;;5011500;28;20419;-69
2024/02/14 04:08:11;;;;;;;6.13;4.90;;;5.00;12.90;;;;;;5011385;28;20250;-69
2024/02/14 04:10:37;;;;;;;6.00;4.47;;;4.90;13.60;;;;;;5011707;28;20419;-69
2024/02/14 04:13:04;;;;;;;11.30;5.40;;;4.90;14.40;;;;;;5012261;28;20419;-70
2024/02/14 04:15:31;;;;;;;7.80;6.10;;;4.80;14.40;;;;;;5011723;28;20953;-70
2024/02/14 04:17:56;;;;;;;8.23;5.53;;;4.80;15.20;;;;;;5011330;28;20434;-70
2024/02/14 04:20:22;;;;;;;10.70;5.73;;;4.80;15.80;;;;;;5011450;28;20484;-70
2024/02/14 04:22:47;;;;;;;6.13;4.67;;;4.70;14.90;;;;;;5011553;28;20729;-69
2024/02/14 04:25:13;;;;;;;7.77;5.50;;;4.80;14.90;;;;;;5011373;28;20271;-68
2024/02/14 04:27:39;;;;;;;9.23;5.30;;;4.70;14.80;;;;;;5011137;28;20211;-68
2024/02/14 04:30:05;;;;;;;6.20;4.40;;;4.70;15.20;;;;;;5011307;28;20678;-68
2024/02/14 04:32:31;;;;;;;8.67;4.97;;;4.60;15.60;;;;;;4993705;28;20543;-68
2024/02/14 04:34:57;;;;;;;9.37;5.50;;;4.40;16.30;;;;;;5011619;28;20426;-69
2024/02/14 04:37:23;;;;;;;8.30;5.10;;;4.40;17.40;;;;;;5011762;28;20250;-68
2024/02/14 04:39:48;;;;;;;11.13;5.97;;;4.20;18.90;;;;;;5011248;28;20447;-69
2024/02/14 04:42:14;;;;;;;8.03;4.70;;;4.10;19.60;;;;;;5011206;28;20211;-70
2024/02/14 04:44:39;;;;;;;9.00;5.10;;;4.00;19.10;;;;;;5011249;28;20205;-70
2024/02/14 04:47:05;;;;;;;7.03;4.90;;;3.90;20.50;;;;;;5010817;28;20472;-70
2024/02/14 04:49:31;;;;;;;8.07;5.20;;;3.90;20.20;;;;;;5010592;28;20698;-70
2024/02/14 04:51:57;;;;;;;6.40;5.10;;;3.80;19.90;;;;;;5010979;28;20646;-70
2024/02/14 04:54:23;;;;;;;5.97;4.13;;;3.70;21.90;;;;;;5011239;28;20191;-70
2024/02/14 04:56:48;;;;;;;10.57;5.80;;;3.60;22.20;;;;;;5011260;28;20424;-70
2024/02/14 04:59:14;;;;;;;7.13;5.50;;;3.40;23.90;;;;;;5010600;28;20702;-70
2024/02/14 05:01:42;;;;;;;6.20;5.20;;;3.40;24.00;;;;;;5010811;28;20683;-71
2024/02/14 05:04:08;;;;;;;8.95;5.90;;;3.20;25.60;;;;;;5011273;28;20647;-70
2024/02/14 05:06:33;;;;;;;8.10;5.43;;;3.20;27.20;;;;;;5011238;28;20175;-70
2024/02/14 05:08:59;;;;;;;8.23;5.80;;;3.20;27.20;;;;;;5011764;28;20214;-70
2024/02/14 05:11:25;;;;;;;13.93;7.90;;;3.20;28.90;;;;;;5011192;28;20198;-70
2024/02/14 05:13:50;;;;;;;8.27;5.80;;;3.40;29.10;;;;;;5011294;28;20418;-69
2024/02/14 05:16:19;;;;;;;7.20;5.93;;;3.50;28.00;;;;;;5011243;28;20234;-69
2024/02/14 05:18:45;;;;;;;9.73;6.77;;;3.60;27.00;;;;;;4992841;28;20232;-70
2024/02/14 05:21:11;;;;;;;8.20;5.23;;;3.70;26.50;;;;;;5011204;28;20462;-70
2024/02/14 05:23:36;;;;;;;10.60;6.27;;;3.70;25.60;;;;;;4993509;28;20180;-70
2024/02/14 05:26:05;;;;;;;6.97;6.30;;;3.80;24.70;;;;;;5011095;28;20686;-70
2024/02/14 05:28:30;;;;;;;6.80;5.30;;;3.90;23.60;;;;;;5010915;28;20234;-69
2024/02/14 05:30:57;;;;;;;7.97;6.10;;;3.90;24.80;;;;;;5010906;28;20860;-70
2024/02/14 05:33:23;;;;;;;6.03;5.40;;;4.00;24.20;;;;;;4993383;28;20184;-69
2024/02/14 05:35:52;;;;;;;14.50;4.37;;;4.10;22.20;;;;;;5010845;28;20410;-70
2024/02/14 05:38:20;;;;;;;7.13;4.33;;;4.10;21.50;;;;;;5010245;28;20411;-70
2024/02/14 05:40:47;;;;;;;7.13;5.13;;;4.10;20.70;;;;;;5010609;28;20438;-70
2024/02/14 05:43:13;;;;;;;8.40;3.30;;;4.20;19.60;;;;;;5011064;28;20453;-68
2024/02/14 05:45:38;;;;;;;4.97;3.63;;;4.30;18.70;;;;;;5010616;28;20780;-68
2024/02/14 05:48:04;;;;;;;8.20;3.33;;;4.40;17.50;;;;;;5010136;28;20419;-68
2024/02/14 05:50:30;;;;;;;5.73;3.90;;;4.40;16.00;;;;;;5010437;28;20187;-68
2024/02/14 05:52:57;;;;;;;5.40;3.60;;;4.50;15.60;;;;;;5010304;28;20176;-69
2024/02/14 05:55:23;;;;;;;7.13;3.77;;;4.60;15.60;;;;;;5010374;28;20589;-68
2024/02/14 05:57:50;;;;;;;7.03;3.60;;;4.70;15.70;;;;;;5011290;28;20433;-68
2024/02/14 06:00:16;;;;;;;5.20;3.80;;;4.80;15.30;;;;;;5013690;28;20264;-69
2024/02/14 06:02:41;;;;;;;5.93;4.57;;;4.80;12.70;;;;;;5013628;28;20458;-69
2024/02/14 06:05:10;;;;;;;9.43;4.10;;;4.90;12.60;;;;;;5013967;28;20172;-69
2024/02/14 06:07:40;;;;;;;10.50;4.23;;;5.00;11.60;;;;;;5013514;28;20207;-69
2024/02/14 06:10:06;;;;;;;7.97;3.80;;;5.00;10.60;;;;;;5013514;28;20427;-69
2024/02/14 06:12:32;;;;;;;6.47;4.00;;;5.00;10.20;;;;;;5013772;28;20787;-69
2024/02/14 06:14:58;;;;;;;6.07;3.43;;;4.90;9.20;;;;;;5013685;28;20509;-69
2024/02/14 06:17:26;;;;;;;5.90;3.10;;;4.90;10.00;;;;;;5013566;28;20513;-68
2024/02/14 06:19:51;;;;;;;3.37;2.37;;;4.90;8.80;;;;;;5013161;28;20266;-69
2024/02/14 06:22:17;;;;;;;4.30;3.20;;;5.00;8.00;;;;;;5013644;28;20864;-69
2024/02/14 06:24:42;;;;;;;4.70;3.10;;;5.10;7.90;;;;;;5013371;28;20172;-69
2024/02/14 06:27:08;;;;;;;3.83;2.93;;;5.10;7.50;;;;;;5013437;28;20663;-69
2024/02/14 06:29:33;;;;;;;7.97;3.77;;;5.20;7.90;;;;;;5013027;28;20192;-69
2024/02/14 06:31:59;;;;;;;7.60;3.57;;;5.30;8.20;;;;;;5013416;28;20254;-69
2024/02/14 06:34:25;;;;;;;5.73;3.27;;;5.40;7.20;;;;;;4995788;28;20595;-70
2024/02/14 06:36:51;;;;;;;4.80;3.37;;;5.50;5.80;;;;;;4996126;28;20264;-68
2024/02/14 06:39:17;;;;;;;5.57;2.60;;;5.50;5.80;;;;;;4995290;28;20509;-68
2024/02/14 06:41:45;;;;;;;10.60;2.80;;;5.60;4.80;;;;;;4995280;28;20528;-67
2024/02/14 06:44:10;;;;;;;6.70;3.30;;;5.70;3.60;;;;;;5013141;28;20170;-69
2024/02/14 06:46:37;;;;;;;6.50;3.50;;;5.80;3.30;;;;;;4995425;28;20411;-69
2024/02/14 06:49:03;;;;;;;4.40;3.00;;;5.90;3.40;;;;;;5012573;28;20208;-68
2024/02/14 06:51:30;;;;;;;6.57;3.80;;;6.00;2.60;;;;;;5013017;28;20474;-68
2024/02/14 06:53:56;;;;;;;5.80;3.50;;;6.00;1.60;;;;;;5012496;28;20191;-68
2024/02/14 06:56:22;;;;;;;3.83;2.80;;;6.10;1.50;;;;;;5012741;28;20427;-68
2024/02/14 06:58:52;;;;;;;4.53;2.63;;;6.10;1.20;;;;;;5012770;28;20489;-68
2024/02/14 07:01:21;;;;;;;8.30;3.03;;;6.20;1.00;;;;;;5013058;28;20212;-68
2024/02/14 07:03:47;;;;;;;5.37;2.43;;;6.20;1.00;;;;;;5012826;28;20411;-69
2024/02/14 07:06:13;;;;;;;4.07;2.47;;;6.30;1.00;;;;;;5012440;28;20412;-69
2024/02/14 07:08:41;;;;;;;5.30;2.77;;;6.30;1.00;;;;;;5012210;28;20451;-69
2024/02/14 07:11:06;;;;;;;3.33;2.93;;;6.30;1.00;;;;;;5012407;28;20186;-69
2024/02/14 07:13:32;;;;;;;4.00;2.43;;;6.40;1.00;;;;;;5012582;28;20417;-69
2024/02/14 07:15:57;;;;;;;4.70;2.80;;;6.40;1.00;;;;;;5012431;28;20180;-69
2024/02/14 07:18:23;;;;;;;6.10;4.30;;;6.40;1.00;;;;;;5012263;28;20314;-69
2024/02/14 07:20:48;;;;;;;4.63;2.47;;;6.50;1.00;;;;;;5010809;28;20264;-69
2024/02/14 07:23:14;;;;;;;6.23;2.80;;;6.60;1.00;;;;;;5011552;28;20602;-68
2024/02/14 07:25:39;;;;;;;3.80;2.73;;;6.60;1.00;;;;;;5011259;28;20178;-67
2024/02/14 07:28:06;;;;;;;7.93;3.80;;;6.70;1.00;;;;;;5011286;28;20899;-67
2024/02/14 07:30:32;;;;;;;3.83;2.83;;;6.80;1.00;;;;;;5012135;28;20430;-67
2024/02/14 07:32:57;;;;;;;4.00;3.47;;;6.90;1.00;;;;;;5011027;28;20649;-70
2024/02/14 07:35:23;;;;;;;6.00;3.83;;;6.90;1.00;;;;;;5007049;28;20728;-69
2024/02/14 07:37:48;;;;;;;6.03;3.30;;;7.00;1.00;;;;;;5007557;28;20208;-66
2024/02/14 07:40:14;;;;;;;4.00;3.10;;;7.00;1.40;;;;;;5007637;28;20622;-67
2024/02/14 07:42:40;;;;;;;6.43;3.70;;;7.10;1.40;;;;;;5007935;28;20229;-68
2024/02/14 07:45:06;;;;;;;7.70;3.67;;;7.10;1.50;;;;;;5007496;28;20425;-67
2024/02/14 07:47:31;;;;;;;6.53;4.80;;;7.10;1.90;;;;;;4993083;28;20598;-67
2024/02/14 07:49:57;;;;;;;5.60;4.37;;;7.20;1.40;;;;;;5007381;28;20224;-67
2024/02/14 07:52:23;;;;;;;10.70;4.03;;;7.30;1.50;;;;;;5006630;28;20281;-67
2024/02/14 07:54:53;;;;;;;6.00;4.73;;;7.40;1.30;;;;;;5006366;28;20528;-67
2024/02/14 07:57:19;;;;;;;7.20;2.80;;;7.70;1.00;;;;;;5007691;28;20202;-67
2024/02/14 07:59:45;;;;;;;5.43;2.23;;;7.90;1.00;;;;;;5006180;28;20857;-67
2024/02/14 08:02:10;;;;;;;2.73;1.83;;;8.10;1.00;;;;;;5005943;28;20219;-68
2024/02/14 08:04:36;;;;;;;5.80;2.50;;;8.30;1.00;;;;;;5007218;28;20261;-68
2024/02/14 08:07:01;;;;;;;6.73;3.73;;;8.40;1.00;;;;;;5005487;28;20184;-68
2024/02/14 08:09:27;;;;;;;6.63;3.80;;;8.60;1.00;;;;;;5004194;28;20680;-68
2024/02/14 08:11:53;;;;;;;6.10;3.57;;;8.50;1.00;;;;;;5008056;28;20191;-68
2024/02/14 08:14:18;;;;;;;4.90;3.67;;;8.60;1.00;;;;;;5010093;28;20183;-70
2024/02/14 08:16:44;;;;;;;6.10;4.07;;;8.70;1.00;;;;;;5011586;28;20552;-70
2024/02/14 08:19:09;;;;;;;4.43;3.27;;;8.90;1.00;;;;;;5011202;28;20199;-69
2024/02/14 08:21:36;;;;;;;5.53;3.30;;;9.00;1.00;;;;;;5010453;28;20215;-69
2024/02/14 08:24:01;;;;;;;3.10;2.70;;;9.20;1.00;;;;;;5011253;28;20175;-70
2024/02/14 08:26:27;;;;;;;8.53;2.83;;;9.40;1.00;;;;;;5011607;28;20753;-70
2024/02/14 08:28:53;;;;;;;6.80;3.63;;;9.70;1.00;;;;;;5011190;28;20282;-69
2024/02/14 08:31:20;;;;;;;5.07;2.73;;;9.80;1.00;;;;;;5011407;28;20423;-70
2024/02/14 08:33:46;;;;;;;6.93;2.90;;;9.90;1.00;;;;;;5011389;28;20746;-70
2024/02/14 08:36:11;;;;;;;5.87;2.57;;;9.90;1.00;;;;;;5011573;28;20687;-70
2024/02/14 08:38:37;;;;;;;4.60;2.37;;;10.20;1.00;;;;;;5011261;28;20200;-70
2024/02/14 08:41:03;;;;;;;5.87;2.27;;;10.40;1.00;;;;;;5011057;28;20180;-69
2024/02/14 08:43:29;;;;;;;8.10;3.00;;;10.50;1.00;;;;;;5011307;28;20234;-69
2024/02/14 08:45:55;;;;;;;4.47;2.40;;;10.80;1.00;;;;;;5011418;28;20423;-69
2024/02/14 08:48:21;;;;;;;4.20;2.30;;;10.80;1.00;;;;;;5010933;28;20481;-69
2024/02/14 08:50:46;;;;;;;8.43;3.00;;;11.00;1.00;;;;;;5011663;28;20832;-69
2024/02/14 08:53:13;;;;;;;5.50;2.73;;;11.20;1.00;;;;;;5011250;28;20667;-69
2024/02/14 08:55:40;;;;;;;6.97;3.23;;;11.30;1.00;;;;;;5011539;28;20264;-70
2024/02/14 08:58:06;;;;;;;7.10;3.50;;;11.40;1.00;;;;;;5011249;28;20731;-70
2024/02/14 09:00:35;;;;;;;6.53;4.23;;;11.50;1.00;;;;;;5011300;28;20443;-70
2024/02/14 09:03:00;;;;;;;4.90;3.50;;;11.60;1.00;;;;;;5011257;28;20491;-70
2024/02/14 09:05:28;;;;;;;7.33;3.37;;;11.70;1.00;;;;;;5011421;28;20452;-70
2024/02/14 09:07:53;;;;;;;6.60;3.63;;;11.80;1.00;;;;;;5011041;28;20603;-69
2024/02/14 09:10:19;;;;;;;5.80;3.33;;;11.80;1.00;;;;;;5010966;28;20444;-70
2024/02/14 09:12:45;;;;;;;5.20;3.20;;;11.70;1.00;;;;;;5011189;28;20181;-70
2024/02/14 09:15:11;;;;;;;14.43;2.63;;;11.70;1.00;;;;;;5011152;28;20551;-70
2024/02/14 09:17:38;;;;;;;4.23;3.07;;;11.80;1.00;;;;;;5011015;28;20178;-70
2024/02/14 09:20:06;;;;;;;6.73;3.20;;;11.80;1.00;;;;;;5010954;28;20452;-70
2024/02/14 09:22:33;;;;;;;3.97;2.63;;;12.10;1.00;;;;;;4992993;28;20932;-70
2024/02/14 09:24:59;;;;;;;5.50;3.33;;;12.20;1.00;;;;;;5010957;28;20414;-70
2024/02/14 09:27:24;;;;;;;4.90;2.60;;;12.20;1.00;;;;;;5010899;28;20411;-70
2024/02/14 09:29:50;;;;;;;5.90;2.40;;;12.20;1.00;;;;;;5010736;28;20199;-70
2024/02/14 09:32:15;;;;;;;5.93;3.10;;;12.40;1.00;;;;;;5011218;28;20183;-69
2024/02/14 09:34:41;;;;;;;6.03;2.93;;;12.50;1.00;;;;;;5014638;28;20183;-69
2024/02/14 09:37:07;;;;;;;5.83;3.90;;;12.60;1.00;;;;;;5014416;28;20322;-69
2024/02/14 09:39:36;;;;;;;6.03;3.57;;;12.60;1.00;;;;;;5014125;28;20195;-69
2024/02/14 09:42:07;;;;;;;3.53;2.63;;;12.70;1.00;;;;;;5014436;28;20221;-69
2024/02/14 09:44:34;;;;;;;4.60;2.90;;;12.80;1.00;;;;;;5014555;28;20415;-69
2024/02/14 09:47:01;;;;;;;5.80;3.93;;;12.90;1.00;;;;;;5014791;28;20469;-69
2024/02/14 09:49:28;;;;;;;3.60;2.40;;;13.00;1.00;;;;;;5013960;28;20508;-69
2024/02/14 09:51:55;;;;;;;6.73;3.60;;;13.10;1.00;;;;;;5014042;28;20838;-68
2024/02/14 09:54:21;;;;;;;6.57;3.80;;;13.00;1.00;;;;;;5014079;28;20497;-70
2024/02/14 09:56:53;;;;;;;4.77;2.83;;;13.40;1.00;;;;;;5014240;28;20419;-70
2024/02/14 09:59:20;;;;;;;4.10;3.23;;;13.80;1.00;;;;;;5013882;28;20534;-70
2024/02/14 10:01:47;;;;;;;5.07;2.90;;;14.10;1.00;;;;;;5014000;28;20489;-70
2024/02/14 10:04:13;;;;;;;3.70;2.87;;;14.10;1.00;;;;;;5014065;28;20437;-70
2024/02/14 10:06:39;;;;;;;3.00;2.20;;;14.20;1.00;;;;;;5014153;28;20501;-70
2024/02/14 10:09:05;;;;;;;5.87;3.07;;;14.40;1.00;;;;;;5013803;28;20261;-70
2024/02/14 10:11:33;;;;;;;4.77;2.20;;;14.30;1.00;;;;;;5013856;28;20562;-69
2024/02/14 10:14:02;;;;;;;8.03;2.83;;;14.30;1.00;;;;;;5013680;28;20425;-69
2024/02/14 10:16:28;;;;;;;3.00;2.43;;;14.40;1.00;;;;;;5013655;28;20787;-69
2024/02/14 10:18:54;;;;;;;3.30;3.00;;;14.40;1.00;;;;;;5013847;28;20454;-69
2024/02/14 10:21:21;;;;;;;2.40;1.80;;;14.20;1.00;;;;;;5013419;28;20450;-69
2024/02/14 10:23:49;;;;;;;9.90;2.77;;;14.30;1.00;;;;;;5013550;28;20474;-69
2024/02/14 10:26:15;;;;;;;3.90;2.53;;;14.40;1.00;;;;;;5013736;28;20447;-70
2024/02/14 10:28:42;;;;;;;3.87;2.67;;;13.80;1.00;;;;;;5014003;28;20513;-71
2024/02/14 10:31:10;;;;;;;7.53;3.13;;;13.90;1.00;;;;;;5013569;28;20168;-70
2024/02/14 10:33:35;;;;;;;3.03;2.20;;;13.50;1.00;;;;;;5013762;28;20847;-71
2024/02/14 10:36:02;;;;;;;4.50;2.80;;;13.50;1.00;;;;;;5013542;28;20450;-69
2024/02/14 10:38:32;;;;;;;2.27;1.63;;;13.50;1.00;;;;;;5013393;28;20258;-69
2024/02/14 10:41:00;;;;;;;2.53;1.50;;;13.70;1.00;;;;;;5013473;28;20415;-69
2024/02/14 10:43:26;;;;;;;3.90;1.63;;;13.80;1.00;;;;;;5012913;28;20411;-68
2024/02/14 10:45:54;;;;;;;5.03;1.50;;;14.00;1.00;;;;;;5012268;28;20426;-68
2024/02/14 10:48:24;;;;;;;3.57;1.70;;;14.00;1.00;;;;;;5012595;28;20845;-69
2024/02/14 10:50:52;;;;;;;1.80;0.90;;;14.20;1.00;;;;;;5013142;28;20494;-68
2024/02/14 10:53:18;;;;;;;2.43;1.27;;;14.10;1.00;;;;;;5013181;28;20430;-69
2024/02/14 10:55:47;;;;;;;2.20;1.13;;;14.20;1.00;;;;;;5013080;28;20422;-69
2024/02/14 10:58:16;;;;;;;1.93;1.07;;;14.40;1.00;;;;;;5012594;28;20403;-69
2024/02/14 11:00:42;;;;;;;2.10;1.03;;;14.40;1.00;;;;;;5012734;28;20411;-69
2024/02/14 11:03:10;;;;;;;2.37;1.10;;;14.50;1.00;;;;;;5012611;28;21038;-69
2024/02/14 11:05:45;;;;;;;3.40;1.17;;;14.80;1.00;;;;;;5012728;28;20414;-69
2024/02/14 11:08:14;;;;;;;3.00;0.87;;;14.90;1.00;;;;;;5012440;28;20496;-69
2024/02/14 11:10:39;;;;;;;2.20;1.13;;;14.80;1.00;;;;;;5012647;28;20411;-69
2024/02/14 11:13:10;;;;;;;2.43;1.00;;;14.70;1.00;;;;;;5012712;28;20418;-69
2024/02/14 11:15:36;;;;;;;5.00;1.00;;;14.70;1.00;;;;;;5012706;28;20172;-68
2024/02/14 11:18:07;;;;;;;3.83;1.63;;;14.50;1.00;;;;;;5012383;28;20418;-69
2024/02/14 11:20:36;;;;;;;2.00;1.13;;;14.50;1.00;;;;;;4994678;28;20512;-69
2024/02/14 11:23:06;;;;;;;1.77;0.77;;;14.80;1.00;;;;;;5012491;28;20969;-69
2024/02/14 11:25:36;;;;;;;1.90;1.00;;;14.90;1.00;;;;;;4994763;28;20415;-69
2024/02/14 11:28:14;;;;;;;3.37;1.40;;;14.80;1.00;;;;;;5012057;28;20423;-69
2024/02/14 11:30:41;;;;;;;1.80;0.80;;;15.00;1.00;;;;;;5012546;28;20414;-68
2024/02/14 11:33:17;;;;;;;2.17;1.00;;;14.60;1.00;;;;;;5012190;28;20784;-69
2024/02/14 11:35:45;;;;;;;2.63;1.30;;;14.20;1.00;;;;;;5012198;28;20417;-70
2024/02/14 11:38:10;;;;;;;1.80;0.80;;;14.30;1.00;;;;;;5011750;28;20429;-70
2024/02/14 11:40:39;;;;;;;1.90;1.10;;;14.70;1.00;;;;;;5011941;28;20768;-69
2024/02/14 11:43:09;;;;;;;2.20;1.00;;;15.10;1.00;;;;;;5011965;28;20591;-69
2024/02/14 11:45:39;;;;;;;2.20;0.93;;;15.10;1.00;;;;;;5012325;28;20411;-70
2024/02/14 11:48:05;;;;;;;2.00;0.90;;;14.90;1.00;;;;;;4994589;28;20447;-70
2024/02/14 11:50:31;;;;;;;2.93;1.10;;;14.80;1.00;;;;;;5012094;28;20510;-70
2024/02/14 11:52:59;;;;;;;1.87;1.00;;;14.80;1.00;;;;;;5012775;28;20419;-70
2024/02/14 11:55:28;;;;;;;2.20;1.00;;;14.80;1.00;;;;;;5012741;28;20425;-70
2024/02/14 11:57:54;;;;;;;2.93;0.77;;;14.50;1.00;;;;;;5012474;28;20414;-70
2024/02/14 12:00:20;;;;;;;2.47;1.00;;;14.20;1.00;;;;;;5012486;28;20513;-70
2024/02/14 12:02:46;;;;;;;1.70;0.70;;;14.20;1.00;;;;;;5012707;28;20196;-70
2024/02/14 12:05:11;;;;;;;1.90;1.00;;;14.10;1.00;;;;;;5012696;28;20180;-70
2024/02/14 12:07:37;;;;;;;2.23;0.87;;;14.20;1.00;;;;;;5012490;28;20976;-70
2024/02/14 12:10:03;;;;;;;1.87;0.80;;;13.90;1.00;;;;;;5012290;28;20258;-69
2024/02/14 12:12:29;;;;;;;2.20;1.00;;;13.90;1.00;;;;;;5012236;28;20415;-70
2024/02/14 12:14:54;;;;;;;2.03;0.90;;;13.80;1.00;;;;;;5012419;28;20426;-70
2024/02/14 12:17:22;;;;;;;1.70;0.80;;;14.10;1.00;;;;;;5011930;28;20522;-70
2024/02/14 12:19:48;;;;;;;1.70;0.83;;;14.10;1.00;;;;;;5011819;28;20545;-70
2024/02/14 12:22:17;;;;;;;2.20;1.00;;;14.20;1.00;;;;;;5012418;28;20458;-69
2024/02/14 12:24:44;;;;;;;1.60;0.70;;;14.30;1.00;;;;;;5012509;28;20411;-70
2024/02/14 12:27:10;;;;;;;1.90;0.90;;;14.60;1.00;;;;;;5012641;28;20473;-69
2024/02/14 12:29:36;;;;;;;2.10;1.10;;;15.00;1.00;;;;;;5012591;28;20435;-69
2024/02/14 12:32:08;;;;;;;1.60;0.73;;;15.00;1.00;;;;;;5011516;28;20184;-70
2024/02/14 12:34:33;;;;;;;1.70;0.80;;;15.20;1.00;;;;;;5011531;28;20497;-70
2024/02/14 12:36:59;;;;;;;2.80;1.50;;;15.30;1.00;;;;;;5011601;28;20498;-70
2024/02/14 12:39:27;;;;;;;2.53;0.77;;;15.20;1.00;;;;;;5011217;28;20277;-70
2024/02/14 12:41:53;;;;;;;1.90;0.87;;;14.80;1.00;;;;;;5011983;28;20553;-70
2024/02/14 12:44:18;;;;;;;2.10;0.90;;;14.80;1.00;;;;;;5011901;28;20824;-71
2024/02/14 12:46:44;;;;;;;2.00;0.90;;;15.00;1.00;;;;;;5011777;28;20433;-69
2024/02/14 12:49:11;;;;;;;1.70;0.80;;;15.20;1.00;;;;;;5010884;28;20250;-70
2024/02/14 12:51:38;;;;;;;1.70;0.90;;;15.20;1.00;;;;;;4993502;28;20191;-71
2024/02/14 12:54:05;;;;;;;1.60;0.70;;;15.10;1.00;;;;;;5011610;28;20419;-70